Flight Track Log - Related Links

Times and Time Zones

All times are in EDT time to prevent confusion due to time zone crossing. See the DAL1781 flight status page for this flight to view local times or setup timezone preferences in your user account.

Time Position Orientation Groundspeed Altitude Reporting Facility
EDT Latitude Longitude Course Direction KTS MPH feet Rate Location/Type
Thu 04:32:19 PM 44.8770 -93.2030 325° Northwest 115 132  Level FlightAware ADS-B
Thu 04:32:40 PM 44.8850 -93.2210 302° West 171 197 1,200 3,000 Climbing FlightAware ADS-B
Thu 04:32:57 PM 44.8910 -93.2380 296° West 173 199 1,900 2,571 Climbing FlightAware ADS-B
Thu 04:33:01 PM 44.8920 -93.2430 286° West 176 203 2,100 3,000 Climbing FlightAware ADS-B
Thu 04:33:05 PM 44.8920 -93.2470 270° West 178 205 2,300 1,500 Climbing FlightAware ADS-B
Thu 04:33:29 PM 44.8900 -93.2780 265° West 206 237 2,800 1,250 Climbing FlightAware ADS-B
Thu 04:33:53 PM 44.8840 -93.3120 256° West 238 274 3,300 1,286 Climbing FlightAware ADS-B
Thu 04:33:57 PM 44.8820 -93.3170 241° Southwest 244 281 3,400 1,385 Climbing FlightAware ADS-B
Thu 04:34:06 PM 44.8750 -93.3260 222° Southwest 256 295 3,600 1,385 Climbing FlightAware ADS-B
Thu 04:34:10 PM 44.8710 -93.3300 215° Southwest 259 298 3,700 2,571 Climbing FlightAware ADS-B
Thu 04:34:20 PM 44.8600 -93.3370 204° Southwest 260 299 4,200 2,667 Climbing FlightAware ADS-B
Thu 04:34:28 PM 44.8510 -93.3400 193° South 264 304 4,500 2,625 Climbing FlightAware ADS-B
Thu 04:34:36 PM 44.8410 -93.3420 188° South 268 308 4,900 3,111 Climbing FlightAware ADS-B
Thu 04:34:55 PM 44.8170 -93.3420 180° South 268 308 5,900 3,073 Climbing FlightAware ADS-B
Thu 04:35:17 PM 44.7890 -93.3410 179° South 269 310 7,000 2,714 Climbing FlightAware ADS-B
Thu 04:35:37 PM 44.7640 -93.3400 178° South 274 315 7,800 2,182 Climbing FlightAware ADS-B
Thu 04:35:50 PM 44.7490 -93.3370 172° South 284 327 8,200 2,286 Climbing FlightAware ADS-B
Thu 04:35:58 PM 44.7380 -93.3320 162° South 287 330 8,600 3,000 Climbing FlightAware ADS-B
Thu 04:36:06 PM 44.7280 -93.3240 150° Southeast 288 331 9,000 2,526 Climbing FlightAware ADS-B
Thu 04:36:17 PM 44.7170 -93.3100 138° Southeast 297 342 9,400 1,800 Climbing FlightAware ADS-B
Thu 04:36:26 PM 44.7110 -93.2970 123° Southeast 306 352 9,600 1,636 Climbing FlightAware ADS-B
Thu 04:37:01 PM 44.6840 -93.2330 121° Southeast 326 375 10,600 1,750 Climbing FlightAware ADS-B
Thu 04:37:38 PM 44.6560 -93.1640 120° Southeast 345 397 11,700 1,412 Climbing FlightAware ADS-B
Thu 04:38:09 PM 44.6300 -93.1020 120° Southeast 367 422 12,200 1,433 Climbing FlightAware ADS-B
Thu 04:38:45 PM 44.5980 -93.0260 121° Southeast 377 434 13,300 1,644 Climbing FlightAware ADS-B
Thu 04:39:22 PM 44.5650 -92.9470 120° Southeast 395 455 14,200 1,543 Climbing FlightAware ADS-B
Thu 04:39:55 PM 44.5330 -92.8750 122° Southeast 407 468 15,100 1,791 Climbing FlightAware ADS-B
Thu 04:40:29 PM 44.4990 -92.7950 121° Southeast 414 476 16,200 1,800 Climbing FlightAware ADS-B
Thu 04:41:05 PM 44.4650 -92.7160 121° Southeast 421 484 17,200 1,726 Climbing FlightAware ADS-B
Thu 04:41:42 PM 44.4260 -92.6260 121° Southeast 428 493 18,300 1,739 Climbing FlightAware ADS-B
Thu 04:42:14 PM 44.3920 -92.5490 122° Southeast 434 499 19,200 1,826 Climbing FlightAware ADS-B
Thu 04:42:51 PM 44.3540 -92.4600 121° Southeast 433 498 20,400 1,800 Climbing FlightAware ADS-B
Thu 04:43:24 PM 44.3200 -92.3830 122° Southeast 438 504 21,300 1,437 Climbing FlightAware ADS-B
Thu 04:44:02 PM 44.2800 -92.2890 121° Southeast 447 514 22,100 1,167 Climbing FlightAware ADS-B
Thu 04:44:36 PM 44.2430 -92.2010 120° Southeast 457 526 22,700 1,235 Climbing FlightAware ADS-B
Thu 04:45:10 PM 44.2060 -92.1160 121° Southeast 461 531 23,500 1,371 Climbing FlightAware ADS-B
Thu 04:45:46 PM 44.1660 -92.0230 121° Southeast 465 535 24,300 1,200 Climbing FlightAware ADS-B
Thu 04:46:25 PM 44.1218 -91.9223 121° Southeast 471 542 25,000 1,130 Climbing FlightAware ADS-B (LPVM)
Thu 04:46:55 PM 44.0890 -91.8460 121° Southeast 474 545 25,600 1,091 Climbing FlightAware ADS-B
Thu 04:47:31 PM 44.0480 -91.7520 121° Southeast 479 551 26,200 1,014 Climbing FlightAware ADS-B
Thu 04:48:06 PM 44.0070 -91.6590 121° Southeast 481 554 26,800 1,000 Climbing FlightAware ADS-B
Thu 04:48:43 PM 43.9640 -91.5610 121° Southeast 486 559 27,400 957 Climbing FlightAware ADS-B
Thu 04:49:15 PM 43.9260 -91.4770 122° Southeast 489 563 27,900 806 Climbing FlightAware ADS-B
Thu 04:49:50 PM 43.8750 -91.3900 129° Southeast 493 567 28,300 833 Climbing FlightAware ADS-B
Thu 04:50:27 PM 43.8180 -91.3070 134° Southeast 494 568 28,900 1,029 Climbing FlightAware ADS-B
Thu 04:51:00 PM 43.7640 -91.2310 135° Southeast 494 568 29,500 957 Climbing FlightAware ADS-B
Thu 04:51:36 PM 43.7050 -91.1500 135° Southeast 495 570 30,000 930 Climbing FlightAware ADS-B
Thu 04:52:11 PM 43.6500 -91.0730 135° Southeast 495 570 30,600 1,000 Climbing FlightAware ADS-B
Thu 04:52:42 PM 43.6000 -91.0020 134° Southeast 495 570 31,100 761 Climbing FlightAware ADS-B
Thu 04:53:22 PM 43.5370 -90.9130 134° Southeast 500 575 31,500 640 Climbing FlightAware ADS-B
Thu 04:53:57 PM 43.4780 -90.8320 135° Southeast 502 578 31,900 783 Climbing FlightAware ADS-B
Thu 04:54:31 PM 43.4220 -90.7540 135° Southeast 500 575 32,400 845 Climbing FlightAware ADS-B
Thu 04:55:08 PM 43.3610 -90.6690 135° Southeast 502 578 32,900 514 Climbing FlightAware ADS-B
Thu 04:55:41 PM 43.3090 -90.5970 135° Southeast 502 578 33,000 91 Climbing FlightAware ADS-B
Thu 04:56:14 PM 43.2530 -90.5200 135° Southeast 504 580 33,000  Level FlightAware ADS-B
Thu 04:56:51 PM 43.1940 -90.4390 135° Southeast 508 585 33,000  Level FlightAware ADS-B
Thu 04:57:27 PM 43.1330 -90.3550 135° Southeast 511 588 33,000  Level FlightAware ADS-B
Thu 04:58:00 PM 43.0780 -90.2800 135° Southeast 509 586 33,000 -80 Level FlightAware ADS-B
Thu 04:58:42 PM 43.0080 -90.1840 135° Southeast 511 588 32,900 -79 Descending FlightAware ADS-B
Thu 04:59:16 PM 42.9500 -90.1050 135° Southeast 511 588 32,900 87 Level FlightAware ADS-B
Thu 04:59:51 PM 42.8910 -90.0260 136° Southeast 510 587 33,000  Climbing FlightAware ADS-B
Thu 05:00:28 PM 42.8320 -89.9480 136° Southeast 507 583 32,900 -107 Descending FlightAware ADS-B
Thu 05:00:47 PM 42.7900 -89.9120 148° Southeast 499 574 32,900 162 Level FlightAware ADS-B
Thu 05:01:05 PM 42.7540 -89.8940 160° South 491 565 33,000 120 Climbing FlightAware ADS-B
Thu 05:01:37 PM 42.6820 -89.8750 169° South 484 557 33,000 -87 Level FlightAware ADS-B
Thu 05:02:14 PM 42.6000 -89.8570 171° South 484 557 32,900 -85 Descending FlightAware ADS-B
Thu 05:02:48 PM 42.5240 -89.8400 171° South 483 556 32,900  Level FlightAware ADS-B
Thu 05:03:21 PM 42.4530 -89.8240 171° South 482 555 32,900 86 Level FlightAware ADS-B
Thu 05:03:58 PM 42.3710 -89.8060 171° South 482 555 33,000 85 Climbing FlightAware ADS-B
Thu 05:04:32 PM 42.2950 -89.7890 171° South 483 556 33,000  Level FlightAware ADS-B
Thu 05:05:08 PM 42.2160 -89.7720 171° South 484 557 33,000  Level FlightAware ADS-B
Thu 05:05:44 PM 42.1360 -89.7540 171° South 485 558 33,000  Level FlightAware ADS-B
Thu 05:06:19 PM 42.0630 -89.7380 171° South 485 558 33,000  Level FlightAware ADS-B
Thu 05:06:52 PM 41.9970 -89.7240 171° South 486 559 33,000 -87 Level FlightAware ADS-B
Thu 05:07:28 PM 41.9080 -89.7040 171° South 485 558 32,900  Descending FlightAware ADS-B
Thu 05:08:09 PM 41.8200 -89.6850 171° South 485 558 33,000  Climbing FlightAware ADS-B
Thu 05:08:45 PM 41.7410 -89.6680 171° South 484 557 32,900 -90 Descending FlightAware ADS-B
Thu 05:09:16 PM 41.6700 -89.6530 171° South 482 555 32,900  Level FlightAware ADS-B
Thu 05:09:55 PM 41.5850 -89.6350 171° South 479 551 32,900 82 Level FlightAware ADS-B
Thu 05:10:29 PM 41.5070 -89.6180 171° South 477 549 33,000 87 Climbing FlightAware ADS-B
Thu 05:11:04 PM 41.4310 -89.6020 171° South 475 547 33,000 -88 Level FlightAware ADS-B
Thu 05:11:37 PM 41.3620 -89.5880 171° South 474 545 32,900  Descending FlightAware ADS-B
Thu 05:12:14 PM 41.2820 -89.5710 171° South 473 544 33,000  Climbing FlightAware ADS-B
Thu 05:12:51 PM 41.2020 -89.5540 171° South 473 544 32,900  Descending FlightAware ADS-B
Thu 05:13:23 PM 41.1290 -89.5400 172° South 469 540 33,000  Climbing FlightAware ADS-B
Thu 05:14:00 PM 41.0500 -89.5270 173° South 467 537 32,900  Descending FlightAware ADS-B
Thu 05:14:34 PM 40.9800 -89.5170 174° South 468 539 33,000 92 Climbing FlightAware ADS-B
Thu 05:15:05 PM 40.9120 -89.5060 173° South 469 540 33,000 -105 Level FlightAware ADS-B
Thu 05:15:31 PM 40.8540 -89.4990 175° South 462 532 32,900  Descending FlightAware ADS-B
Thu 05:15:55 PM 40.8050 -89.5080 188° South 445 512 33,000 98 Climbing FlightAware ADS-B
Thu 05:16:32 PM 40.7320 -89.5300 193° South 443 510 33,000 -86 Level FlightAware ADS-B
Thu 05:17:05 PM 40.6630 -89.5490 192° South 441 507 32,900  Descending FlightAware ADS-B
Thu 05:17:41 PM 40.5910 -89.5660 190° South 449 517 33,000  Climbing FlightAware ADS-B
Thu 05:18:23 PM 40.5030 -89.5650 180° South 467 537 32,900 -75 Descending FlightAware ADS-B
Thu 05:19:01 PM 40.4230 -89.5480 171° South 469 540 32,900 86 Level FlightAware ADS-B
Thu 05:19:33 PM 40.3530 -89.5320 170° South 468 539 33,000  Climbing FlightAware ADS-B
Thu 05:20:10 PM 40.2790 -89.5160 171° South 468 539 32,900 -81 Descending FlightAware ADS-B
Thu 05:20:47 PM 40.2310 -89.5050 170° South 465 535 32,900  Level FlightAware ADS-B
Thu 05:21:35 PM 40.1080 -89.4780 170° South 465 535 32,900  Level FlightAware ADS-B
Thu 05:22:11 PM 40.0430 -89.4630 170° South 465 535 32,900  Level FlightAware ADS-B
Thu 05:22:43 PM 39.9480 -89.4470 173° South 463 533 32,900  Level FlightAware ADS-B
Thu 05:23:19 PM 39.8720 -89.4250 167° South 473 544 32,900 71 Level FlightAware ADS-B
Thu 05:24:07 PM 39.7710 -89.3800 161° South 480 552 33,000  Climbing FlightAware ADS-B
Thu 05:24:57 PM 39.6750 -89.3300 158° South 481 554 32,900 -70 Descending FlightAware ADS-B
Thu 05:25:33 PM 39.6120 -89.2970 158° South 481 554 32,900  Level FlightAware ADS-B
Thu 05:26:09 PM 39.5480 -89.2640 158° South 481 554 32,900  Level FlightAware ADS-B
Thu 05:26:46 PM 39.4830 -89.2300 158° South 481 554 32,900  Level FlightAware ADS-B
Thu 05:27:22 PM 39.4200 -89.1970 158° South 481 554 32,900  Level FlightAware ADS-B
Thu 05:27:58 PM 39.3570 -89.1640 158° South 481 554 32,900  Level FlightAware ADS-B
Thu 05:28:37 PM 39.2890 -89.1280 158° South 481 554 32,900  Level FlightAware ADS-B
Thu 05:29:25 PM 39.1210 -89.0730 166° South 470 541 32,900  Level FlightAware ADS-B
Thu 05:30:00 PM 39.0440 -89.0370 160° South 469 540 32,900 85 Level FlightAware ADS-B
Thu 05:30:36 PM 38.9660 -89.0010 160° South 468 539 33,000  Climbing FlightAware ADS-B
Thu 05:31:08 PM 38.9030 -88.9720 160° South 468 539 32,900 -88 Descending FlightAware ADS-B
Thu 05:31:44 PM 38.8300 -88.9390 161° South 468 539 32,900 83 Level FlightAware ADS-B
Thu 05:32:20 PM 38.7560 -88.9050 160° South 468 539 33,000  Climbing FlightAware ADS-B
Thu 05:32:52 PM 38.6900 -88.8750 160° South 467 537 32,900  Descending FlightAware ADS-B
Thu 05:33:28 PM 38.6180 -88.8420 160° South 465 535 33,000  Climbing FlightAware ADS-B
Thu 05:34:04 PM 38.5440 -88.8090 161° South 464 534 32,900 -88 Descending FlightAware ADS-B
Thu 05:34:36 PM 38.4790 -88.7800 161° South 464 534 32,900  Level FlightAware ADS-B
Thu 05:35:13 PM 38.4050 -88.7460 160° South 463 533 32,900 83 Level FlightAware ADS-B
Thu 05:35:48 PM 38.3330 -88.7140 161° South 463 533 33,000  Climbing FlightAware ADS-B
Thu 05:36:24 PM 38.2600 -88.6810 160° South 463 533 32,900 -83 Descending FlightAware ADS-B
Thu 05:37:00 PM 38.1870 -88.6480 160° South 463 533 32,900  Level FlightAware ADS-B
Thu 05:37:36 PM 38.1140 -88.6160 161° South 463 533 32,900 88 Level FlightAware ADS-B
Thu 05:38:08 PM 38.0480 -88.5870 161° South 463 533 33,000  Climbing FlightAware ADS-B
Thu 05:38:44 PM 37.9770 -88.5550 160° South 462 532 32,900 -83 Descending FlightAware ADS-B
Thu 05:39:20 PM 37.9050 -88.5230 161° South 462 532 32,900  Level FlightAware ADS-B
Thu 05:39:52 PM 37.8400 -88.4940 161° South 462 532 32,900  Level FlightAware ADS-B
Thu 05:40:28 PM 37.7670 -88.4620 161° South 462 532 32,900  Level FlightAware ADS-B
Thu 05:41:06 PM 37.6900 -88.4280 161° South 460 529 32,900  Level FlightAware ADS-B
Thu 05:41:26 PM 37.6510 -88.4090 159° South 477 549 32,900  Level FlightAware ADS-B
Thu 05:41:38 PM 37.6280 -88.3890 145° Southeast 498 573 32,900 125 Level FlightAware ADS-B
Thu 05:42:14 PM 37.5690 -88.3210 138° Southeast 505 581 33,000  Climbing FlightAware ADS-B
Thu 05:42:50 PM 37.5030 -88.2460 138° Southeast 501 577 32,900 -83 Descending FlightAware ADS-B
Thu 05:43:26 PM 37.4410 -88.1800 140° Southeast 499 574 32,900  Level FlightAware ADS-B
Thu 05:43:58 PM 37.3830 -88.1170 139° Southeast 502 578 32,900  Level FlightAware ADS-B
Thu 05:44:34 PM 37.3220 -88.0480 138° Southeast 504 580 32,900  Level FlightAware ADS-B
Thu 05:45:10 PM 37.2610 -87.9770 137° Southeast 503 579 32,900  Level FlightAware ADS-B
Thu 05:45:40 PM 37.2090 -87.9170 137° Southeast 503 579 32,900 88 Level FlightAware ADS-B
Thu 05:46:18 PM 37.1430 -87.8410 137° Southeast 503 579 33,000  Climbing FlightAware ADS-B
Thu 05:46:54 PM 37.0820 -87.7720 138° Southeast 504 580 32,900 -83 Descending FlightAware ADS-B
Thu 05:47:30 PM 37.0200 -87.7030 138° Southeast 497 572 32,900  Level FlightAware ADS-B
Thu 05:48:10 PM 36.9470 -87.6340 143° Southeast 496 571 32,900  Level FlightAware ADS-B
Thu 05:48:46 PM 36.8830 -87.5730 143° Southeast 498 573 32,900 83 Level FlightAware ADS-B
Thu 05:49:22 PM 36.8140 -87.5070 143° Southeast 500 575 33,000  Climbing FlightAware ADS-B
Thu 05:49:54 PM 36.7550 -87.4500 142° Southeast 501 577 32,900 -94 Descending FlightAware ADS-B
Thu 05:50:26 PM 36.7000 -87.3950 141° Southeast 502 578 32,900  Level FlightAware ADS-B
Thu 05:50:58 PM 36.6390 -87.3360 142° Southeast 504 580 32,900  Level FlightAware ADS-B
Thu 05:51:34 PM 36.5740 -87.2720 142° Southeast 505 581 32,900  Level FlightAware ADS-B
Thu 05:52:10 PM 36.5070 -87.2070 142° Southeast 507 583 32,900 88 Level FlightAware ADS-B
Thu 05:52:42 PM 36.4480 -87.1500 142° Southeast 506 582 33,000  Climbing FlightAware ADS-B
Thu 05:53:22 PM 36.3740 -87.0790 142° Southeast 507 583 32,900 -79 Descending FlightAware ADS-B
Thu 05:53:58 PM 36.3060 -87.0130 142° Southeast 507 583 32,900  Level FlightAware ADS-B
Thu 05:54:29 PM 36.2470 -86.9560 142° Southeast 508 585 32,900  Level FlightAware ADS-B
Thu 05:55:07 PM 36.1770 -86.8890 142° Southeast 508 585 32,900  Level FlightAware ADS-B
Thu 05:55:39 PM 36.1160 -86.8300 142° Southeast 508 585 32,900  Level FlightAware ADS-B
Thu 05:56:04 PM 36.0704 -86.7866 142° Southeast 507 583 32,900 107 Level FlightAware ADS-B
Thu 05:56:35 PM 36.0135 -86.7324 142° Southeast 506 582 33,000 98 Climbing FlightAware ADS-B
Thu 05:57:05 PM 35.9567 -86.6785 142° Southeast 505 581 33,000 -98 Level FlightAware ADS-B
Thu 05:57:36 PM 35.8995 -86.6245 143° Southeast 504 580 32,900 -67 Descending FlightAware ADS-B
Thu 05:58:35 PM 35.7910 -86.5230 143° Southeast 501 577 32,900 85 Level FlightAware ADS-B
Thu 05:58:47 PM 35.7692 -86.5015 141° Southeast 503 579 33,000  Climbing FlightAware ADS-B
Thu 05:59:25 PM 35.6993 -86.4355 143° Southeast 499 574 32,900 -88 Descending FlightAware ADS-B
Thu 05:59:55 PM 35.6441 -86.3837 143° Southeast 499 574 32,900  Level FlightAware ADS-B
Thu 06:00:26 PM 35.5860 -86.3292 143° Southeast 497 572 32,900  Level FlightAware ADS-B
Thu 06:00:59 PM 35.5273 -86.2740 143° Southeast 496 571 32,900 94 Level FlightAware ADS-B
Thu 06:01:30 PM 35.4703 -86.2206 143° Southeast 495 570 33,000  Climbing FlightAware ADS-B
Thu 06:02:00 PM 35.4151 -86.1690 143° Southeast 495 570 32,900  Descending FlightAware ADS-B
Thu 06:02:32 PM 35.3578 -86.1154 143° Southeast 495 570 33,000  Climbing FlightAware ADS-B
Thu 06:03:04 PM 35.3000 -86.0613 143° Southeast 495 570 32,900 -94 Descending FlightAware ADS-B
Thu 06:03:36 PM 35.2406 -86.0059 143° Southeast 497 572 32,900  Level FlightAware ADS-B
Thu 06:04:06 PM 35.1853 -85.9543 143° Southeast 497 572 32,900  Level FlightAware ADS-B
Thu 06:04:37 PM 35.1297 -85.9027 143° Southeast 497 572 32,900  Level FlightAware ADS-B
Thu 06:05:09 PM 35.0705 -85.8492 144° Southeast 494 568 32,900 -290 Level FlightAware ADS-B
Thu 06:05:39 PM 35.0135 -85.8022 146° Southeast 491 565 32,600 -1,100 Descending FlightAware ADS-B
Thu 06:06:09 PM 34.9552 -85.7560 147° Southeast 495 570 31,800 -1,258 Descending FlightAware ADS-B
Thu 06:06:41 PM 34.8945 -85.7081 147° Southeast 495 570 31,300 -1,143 Descending FlightAware ADS-B
Thu 06:07:12 PM 34.8350 -85.6613 147° Southeast 497 572 30,600 -1,475 Descending FlightAware ADS-B
Thu 06:07:42 PM 34.7769 -85.6155 147° Southeast 497 572 29,800 -2,344 Descending FlightAware ADS-B
Thu 06:08:16 PM 34.7102 -85.5631 147° Southeast 500 575 28,100 -2,813 Descending FlightAware ADS-B
Thu 06:08:46 PM 34.6519 -85.5170 147° Southeast 492 566 26,800 -2,419 Descending FlightAware ADS-B
Thu 06:09:18 PM 34.5919 -85.4696 147° Southeast 483 556 25,600 -2,286 Descending FlightAware ADS-B
Thu 06:09:49 PM 34.5350 -85.4249 147° Southeast 473 544 24,400 -2,361 Descending FlightAware ADS-B
Thu 06:10:19 PM 34.4800 -85.3818 147° Southeast 465 535 23,200 -2,323 Descending FlightAware ADS-B
Thu 06:10:51 PM 34.4217 -85.3362 147° Southeast 456 525 22,000 -2,323 Descending FlightAware ADS-B
Thu 06:11:21 PM 34.3689 -85.2949 147° Southeast 448 516 20,800 -2,361 Descending FlightAware ADS-B
Thu 06:11:52 PM 34.3159 -85.2536 147° Southeast 440 506 19,600 -2,273 Descending FlightAware ADS-B
Thu 06:12:27 PM 34.2571 -85.2076 147° Southeast 432 497 18,300 -387 Descending FlightAware ADS-B
Thu 06:13:25 PM 34.1810 -85.1480 147° Southeast 436 502 19,000 442 Climbing FlightAware ADS-B
Thu 06:14:02 PM 34.1280 -85.1060 147° Southeast 436 502 19,000  Level FlightAware ADS-B
Thu 06:14:36 PM 34.0790 -85.0680 147° Southeast 436 502 19,000  Level FlightAware ADS-B
Thu 06:15:12 PM 34.0270 -85.0270 147° Southeast 436 502 19,000  Level FlightAware ADS-B
Thu 06:15:49 PM 33.9740 -84.9850 147° Southeast 436 502 19,000 -5,000 Level FlightAware ADS-B
Thu 06:16:36 PM 33.9130 -84.8150 113° Southeast 396 456 12,000 -5,455 Descending FlightAware ADS-B
Thu 06:17:06 PM 33.8720 -84.7660 135° Southeast 398 458 12,000  Level FlightAware ADS-B
Thu 06:17:41 PM 33.8260 -84.7100 135° Southeast 398 458 12,000  Level FlightAware ADS-B
Thu 06:18:16 PM 33.7810 -84.6550 135° Southeast 381 438 12,000  Level FlightAware ADS-B
Thu 06:18:52 PM 33.7390 -84.6010 133° Southeast 348 400 12,000  Level FlightAware ADS-B
Thu 06:19:06 PM 33.7280 -84.5760 118° Southeast 345 397 12,000  Level FlightAware ADS-B
Thu 06:19:21 PM 33.7210 -84.5490 107° East 347 399 12,000 -1,333 Level FlightAware ADS-B
Thu 06:19:51 PM 33.7190 -84.4900 92° East 348 400 11,000 -1,971 Descending FlightAware ADS-B
Thu 06:20:31 PM 33.7200 -84.4120 89° East 343 395 9,700 -1,600 Descending FlightAware ADS-B
Thu 06:21:06 PM 33.7210 -84.3470 89° East 332 382 9,000 -1,200 Descending FlightAware ADS-B
Thu 06:21:26 PM 33.7210 -84.3120 90° East 328 377 8,600 -1,543 Descending FlightAware ADS-B
Thu 06:21:41 PM 33.7210 -84.2870 90° East 324 373 8,100 -1,662 Descending FlightAware ADS-B
Thu 06:22:31 PM 33.7336 -84.2186 90° East 319 367 6,800 -1,568 Descending Atlanta Center
Thu 06:23:09 PM 33.7333 -84.1500 90° East 297 342 5,800 -1,102 Descending Atlanta TRACON
Thu 06:24:09 PM 33.7333 -84.0500 90° East 287 330 5,000 -400 Descending Atlanta TRACON
Thu 06:25:09 PM 33.7000 -83.9833 121° Southeast 239 275 5,000  Level Atlanta TRACON
Thu 06:26:09 PM 33.6500 -84.0167 209° Southwest 191 220 5,000 -478 Level Atlanta TRACON
Thu 06:31:10 PM 33.6390 -84.3050 209° Southwest 2,500 -556 Descending FlightAware ADS-B
Thu 06:32:16 PM 33.6500 -84.3667 209° Southwest 140 161 1,600 -818 Descending Atlanta TRACON

Login

Don't have an account? Register now (free) for customized features, flight alerts, and more!